Time;durP1;ratioP1;P1;durP2;ratioP2;P2;SDS_P1;SDS_P2;PMS_P1;PMS_P2;Temp;Humidity;BMP_temperature;BMP_pressure;BME280_temperature;BME280_humidity;BME280_pressure;Samples;Min_cycle;Max_cycle;Signal;HPM_P1;HPM_P2
2022/06/10 00:01:19;;;;;;;;;3.33;3.33;;;;;36.41;21.27;101671.50;5094397;27;45676;-80
2022/06/10 00:03:44;;;;;;;;;3.00;3.00;;;;;36.19;21.41;101656.53;5095130;27;45459;-78
2022/06/10 00:06:12;;;;;;;;;5.67;5.00;;;;;36.21;21.20;101662.81;5095930;27;45494;-78
2022/06/10 00:08:41;;;;;;;;;4.00;3.67;;;;;36.26;21.83;101667.09;5095064;27;45562;-77
2022/06/10 00:11:10;;;;;;;;;4.67;4.00;;;;;36.20;21.96;101651.88;5094001;27;46275;-78
2022/06/10 00:13:37;;;;;;;;;6.67;5.00;;;;;36.31;21.69;101664.91;5094718;27;45504;-78
2022/06/10 00:16:04;;;;;;;;;4.67;4.67;;;;;36.29;21.45;101667.78;5094455;27;45385;-77
2022/06/10 00:18:32;;;;;;;;;4.00;4.00;;;;;36.34;21.67;101672.97;5094685;27;45789;-77
2022/06/10 00:20:58;;;;;;;;;4.00;4.00;;;;;36.18;21.98;101668.56;5094711;27;48202;-78
2022/06/10 00:23:24;;;;;;;;;5.33;4.33;;;;;36.12;22.06;101666.28;5094317;27;45354;-78
2022/06/10 00:25:49;;;;;;;;;5.67;4.67;;;;;36.11;21.86;101671.94;5096228;27;45622;-78
2022/06/10 00:28:15;;;;;;;;;4.00;4.00;;;;;35.96;21.67;101665.66;5103052;27;45533;-77
2022/06/10 00:30:41;;;;;;;;;6.00;3.00;;;;;35.79;21.50;101653.09;5123999;27;48191;-78
2022/06/10 00:33:06;;;;;;;;;5.00;5.00;;;;;35.83;22.33;101663.81;5097900;27;45338;-77
2022/06/10 00:35:33;;;;;;;;;5.00;4.67;;;;;35.83;22.05;101660.19;5098173;27;45523;-77
2022/06/10 00:37:59;;;;;;;;;5.00;5.00;;;;;35.77;22.05;101644.91;5098532;27;45578;-77
2022/06/10 00:40:34;;;;;;;;;3.00;3.00;;;;;35.96;22.19;101671.19;5098199;27;45567;-77
2022/06/10 00:42:59;;;;;;;;;5.00;3.33;;;;;35.84;22.02;101653.66;5097903;27;45359;-78
2022/06/10 00:46:25;;;;;;;;;3.67;3.67;;;;;35.86;22.17;101669.09;5099531;27;45540;-77
2022/06/10 00:48:58;;;;;;;;;4.00;4.00;;;;;35.76;21.86;101654.19;5033099;28;45526;-77
2022/06/10 00:51:46;;;;;;;;;3.00;3.00;;;;;35.71;22.04;101656.38;5019786;28;46238;-77
2022/06/10 00:54:18;;;;;;;;;6.00;3.33;;;;;35.69;22.53;101664.78;5036178;28;45661;-78
2022/06/10 00:56:54;;;;;;;;;5.33;4.00;;;;;35.70;22.02;101660.19;5034302;28;45423;-78
2022/06/10 00:59:24;;;;;;;;;5.00;4.00;;;;;35.71;22.10;101667.44;5017929;28;45492;-78
2022/06/10 01:01:54;;;;;;;;;4.00;4.00;;;;;35.56;22.26;101639.09;5034781;28;45534;-78
2022/06/10 01:04:19;;;;;;;;;6.00;4.67;;;;;35.69;22.40;101658.41;5035459;28;45403;-78
2022/06/10 01:06:45;;;;;;;;;5.33;2.33;;;;;35.64;22.51;101639.44;5018479;28;45447;-80
2022/06/10 01:09:11;;;;;;;;;5.33;5.33;;;;;35.62;22.32;101633.13;5034527;28;45551;-78
2022/06/10 01:12:17;;;;;;;;;6.67;4.00;;;;;35.75;22.43;101652.41;5035417;28;46396;-80
2022/06/10 01:15:25;;;;;;;;;6.00;5.00;;;;;35.70;22.39;101652.75;5035103;28;45463;-77
2022/06/10 01:18:01;;;;;;;;;6.00;4.00;;;;;35.67;22.40;101654.88;4956114;28;45523;-77
2022/06/10 01:20:56;;;;;;;;;7.00;4.00;;;;;35.40;22.36;101625.53;4994338;28;45514;-78
2022/06/10 01:23:28;;;;;;;;;3.00;3.00;;;;;35.64;22.29;101646.81;4994736;28;45474;-80
2022/06/10 01:26:13;;;;;;;;;5.00;3.33;;;;;35.47;22.35;101651.69;4994671;28;45362;-78
2022/06/10 01:29:02;;;;;;;;;4.00;3.00;;;;;35.41;22.43;101637.47;4994156;28;45513;-80
2022/06/10 01:31:46;;;;;;;;;3.00;3.00;;;;;35.46;22.67;101636.13;4994580;28;45354;-80
2022/06/10 01:34:48;;;;;;;;;5.00;4.00;;;;;35.39;22.95;101648.63;4994555;28;45535;-80
2022/06/10 01:37:19;;;;;;;;;4.00;4.00;;;;;35.36;22.96;101652.47;4994146;28;45386;-80
2022/06/10 01:39:56;;;;;;;;;4.00;2.00;;;;;35.26;22.85;101645.81;4994433;28;45679;-80
2022/06/10 01:42:31;;;;;;;;;4.00;4.00;;;;;35.09;23.22;101648.88;4994341;28;45343;-80
2022/06/10 01:45:06;;;;;;;;;6.33;4.33;;;;;35.17;23.09;101655.63;4994095;28;45667;-80
2022/06/10 01:47:46;;;;;;;;;4.00;4.00;;;;;35.16;23.12;101648.38;4994307;28;45383;-77
2022/06/10 01:50:18;;;;;;;;;3.67;3.67;;;;;35.14;22.82;101652.22;4994502;28;45402;-80
2022/06/10 01:53:05;;;;;;;;;5.67;3.67;;;;;35.08;23.27;101652.63;5007388;27;45516;-80
2022/06/10 01:55:39;;;;;;;;;4.33;4.33;;;;;35.10;23.23;101647.91;5096599;27;45517;-80
2022/06/10 01:58:10;;;;;;;;;6.33;4.00;;;;;35.13;23.10;101648.56;5097059;27;45330;-80
2022/06/10 02:00:39;;;;;;;;;4.00;4.00;;;;;35.12;23.21;101654.19;5096996;27;45411;-80
2022/06/10 02:03:17;;;;;;;;;4.00;4.00;;;;;35.04;23.39;101654.75;5096756;27;45354;-80
2022/06/10 02:05:50;;;;;;;;;5.00;5.00;;;;;35.03;23.29;101661.25;5096522;27;46327;-80
2022/06/10 02:08:27;;;;;;;;;6.00;6.00;;;;;34.97;23.43;101657.03;5096355;27;45254;-80
2022/06/10 02:11:05;;;;;;;;;5.00;3.67;;;;;35.00;23.31;101651.31;5096441;27;45412;-80
2022/06/10 02:13:42;;;;;;;;;4.67;4.00;;;;;34.95;23.16;101647.09;5096572;27;45414;-80
2022/06/10 02:16:14;;;;;;;;;6.00;5.00;;;;;34.90;23.26;101649.31;5096612;27;46121;-79
2022/06/10 02:18:54;;;;;;;;;3.00;3.00;;;;;34.86;23.45;101646.75;5057227;27;1117139;-79
2022/06/10 02:21:30;;;;;;;;;5.33;3.67;;;;;34.76;23.60;101662.16;5097732;27;45243;-80
2022/06/10 02:24:07;;;;;;;;;4.67;4.00;;;;;34.64;23.66;101643.69;5097770;27;45482;-80
2022/06/10 02:26:35;;;;;;;;;5.00;4.00;;;;;34.68;23.96;101650.78;5095830;27;47011;-80
2022/06/10 02:29:17;;;;;;;;;6.00;5.00;;;;;34.75;23.83;101657.63;5097388;27;45453;-80
2022/06/10 02:31:48;;;;;;;;;4.00;2.67;;;;;34.76;23.63;101636.47;5096164;27;45452;-81
2022/06/10 02:34:13;;;;;;;;;3.67;3.67;;;;;34.85;23.71;101649.63;5097569;27;45373;-80
2022/06/10 02:36:54;;;;;;;;;1.00;1.00;;;;;34.84;23.68;101661.66;5097342;27;45698;-80
2022/06/10 02:39:36;;;;;;;;;4.00;4.00;;;;;34.77;23.56;101650.16;5097235;27;45449;-80
2022/06/10 02:42:19;;;;;;;;;5.67;4.67;;;;;34.72;23.09;101657.84;5097507;27;45388;-80
2022/06/10 02:44:56;;;;;;;;;5.00;5.00;;;;;34.77;23.84;101654.75;5097239;27;45299;-80
2022/06/10 02:47:47;;;;;;;;;4.67;4.00;;;;;34.77;23.58;101661.16;5112977;27;46360;-80
2022/06/10 02:50:14;;;;;;;;;3.67;3.67;;;;;34.50;24.32;101656.56;5097010;27;45434;-80
2022/06/10 02:52:41;;;;;;;;;5.33;4.00;;;;;34.45;23.87;101647.72;5097217;27;45372;-80
2022/06/10 02:55:14;;;;;;;;;3.67;3.67;;;;;34.46;23.80;101660.53;5096985;27;45453;-80
2022/06/10 03:03:45;;;;;;;;;4.67;4.67;;;;;34.39;23.93;101675.69;5074360;28;45277;-80
2022/06/10 03:06:36;;;;;;;;;4.00;4.00;;;;;34.32;23.72;101675.22;5073908;27;45447;-81
2022/06/10 03:09:15;;;;;;;;;6.67;5.33;;;;;34.07;24.44;101669.56;5074046;28;45869;-80
2022/06/10 03:11:59;;;;;;;;;5.00;5.00;;;;;33.93;24.78;101660.34;5073765;28;45401;-80
2022/06/10 03:14:43;;;;;;;;;5.00;5.00;;;;;34.05;24.41;101672.41;5074247;28;45406;-80
2022/06/10 03:17:15;;;;;;;;;6.67;5.67;;;;;34.13;24.63;101677.41;5074230;28;45525;-81
2022/06/10 03:20:00;;;;;;;;;5.67;5.67;;;;;34.11;24.68;101666.50;5073777;28;45605;-80
2022/06/10 03:22:40;;;;;;;;;7.00;5.00;;;;;34.16;23.83;101671.69;5073895;28;45550;-80
2022/06/10 03:25:28;;;;;;;;;6.33;5.00;;;;;34.11;24.89;101683.00;5073956;28;45399;-80
2022/06/10 03:28:18;;;;;;;;;5.00;4.33;;;;;34.13;24.58;101688.41;5073889;28;45688;-80
2022/06/10 03:30:54;;;;;;;;;6.67;5.67;;;;;34.05;24.53;101652.25;5073522;28;45464;-80
2022/06/10 03:33:46;;;;;;;;;6.00;6.00;;;;;34.12;24.30;101679.28;5056915;28;45390;-80
2022/06/10 03:36:16;;;;;;;;;5.67;4.67;;;;;34.27;24.27;101684.75;5073990;28;45536;-80
2022/06/10 03:38:45;;;;;;;;;5.00;5.00;;;;;34.22;24.97;101686.91;5095924;27;45542;-80
2022/06/10 03:41:39;;;;;;;;;5.00;4.33;;;;;34.12;24.35;101694.91;5096347;27;46141;-80
2022/06/10 03:44:14;;;;;;;;;6.00;5.00;;;;;34.13;24.52;101682.91;5095033;27;45403;-79
2022/06/10 03:46:44;;;;;;;;;3.33;3.33;;;;;34.17;24.56;101676.22;5112238;27;45321;-80
2022/06/10 03:49:13;;;;;;;;;5.67;4.67;;;;;34.27;24.45;101687.50;5095299;27;45563;-80
2022/06/10 03:51:39;;;;;;;;;5.33;5.00;;;;;34.18;24.72;101670.59;5095734;27;46328;-80
2022/06/10 03:54:05;;;;;;;;;9.00;7.00;;;;;34.25;24.53;101687.63;5096260;27;45397;-81
2022/06/10 03:56:31;;;;;;;;;6.33;6.33;;;;;34.24;24.62;101673.94;5094822;27;45408;-80
2022/06/10 03:58:57;;;;;;;;;7.00;6.67;;;;;34.45;24.51;101682.66;5096002;27;45492;-80
2022/06/10 04:01:22;;;;;;;;;6.00;4.67;;;;;34.36;24.47;101678.63;5096312;27;46488;-81
2022/06/10 04:03:48;;;;;;;;;5.67;4.00;;;;;34.35;24.40;101680.53;5095755;27;45578;-80
2022/06/10 04:06:16;;;;;;;;;4.33;3.00;;;;;34.27;24.44;101687.50;5095627;27;45263;-80
2022/06/10 04:08:41;;;;;;;;;5.67;5.33;;;;;34.35;24.19;101694.28;5096119;27;45457;-80
2022/06/10 04:11:06;;;;;;;;;3.00;3.00;;;;;34.23;24.61;101702.47;5095694;27;46750;-80
2022/06/10 04:13:32;;;;;;;;;6.00;5.33;;;;;34.15;24.73;101692.84;5096078;27;45376;-80
2022/06/10 04:15:57;;;;;;;;;4.67;4.33;;;;;34.19;24.86;101699.91;5095749;27;48197;-80
2022/06/10 04:18:22;;;;;;;;;7.00;5.67;;;;;34.27;24.28;101715.91;5095760;27;45377;-80
2022/06/10 04:20:48;;;;;;;;;5.67;4.67;;;;;34.28;24.37;101708.56;5095204;27;46465;-79
2022/06/10 04:23:14;;;;;;;;;6.33;4.67;;;;;34.16;24.29;101696.47;5094423;27;45435;-81
2022/06/10 04:25:41;;;;;;;;;5.00;5.00;;;;;34.27;24.38;101713.16;5095796;27;45546;-81
2022/06/10 04:28:07;;;;;;;;;8.33;7.33;;;;;34.15;24.47;101702.97;5095857;27;45665;-81
2022/06/10 04:30:38;;;;;;;;;9.33;5.67;;;;;33.99;24.57;101706.72;5095340;27;45444;-81
2022/06/10 04:33:05;;;;;;;;;5.67;4.00;;;;;33.97;25.16;101716.97;5095368;27;45432;-81
2022/06/10 04:35:32;;;;;;;;;5.33;4.67;;;;;33.75;24.95;101684.41;5095472;27;45405;-81
2022/06/10 04:37:58;;;;;;;;;6.00;5.00;;;;;33.96;24.61;101703.31;5095451;27;45548;-81
2022/06/10 04:40:26;;;;;;;;;5.67;5.33;;;;;33.96;24.28;101708.81;5094174;27;46936;-81
2022/06/10 04:42:53;;;;;;;;;5.67;4.67;;;;;33.94;24.33;101714.41;5095091;27;45588;-81
2022/06/10 04:45:22;;;;;;;;;7.00;6.00;;;;;34.03;24.60;101723.94;5095730;27;45501;-80
2022/06/10 04:47:47;;;;;;;;;7.33;5.00;;;;;34.02;24.50;101722.16;5095375;27;45525;-80
2022/06/10 04:50:15;;;;;;;;;2.67;2.67;;;;;34.15;24.30;101719.47;5094943;27;45636;-79
2022/06/10 04:52:41;;;;;;;;;7.33;5.33;;;;;34.21;24.22;101719.09;5095373;27;45535;-79
2022/06/10 04:55:08;;;;;;;;;6.67;4.67;;;;;34.25;23.83;101717.00;5093813;27;45494;-81
2022/06/10 04:57:34;;;;;;;;;6.00;5.00;;;;;34.41;24.26;101720.56;5095370;27;45510;-81
2022/06/10 04:59:59;;;;;;;;;5.67;5.67;;;;;34.35;24.16;101704.44;5094907;27;45859;-82
2022/06/10 05:02:24;;;;;;;;;7.00;5.00;;;;;34.44;24.11;101716.72;5093617;27;45397;-69
2022/06/10 05:04:50;;;;;;;;;6.33;6.33;;;;;34.41;23.99;101714.16;5094739;27;45389;-70
2022/06/10 05:07:15;;;;;;;;;7.00;5.00;;;;;34.48;23.96;101713.63;5094900;27;45326;-69
2022/06/10 05:09:41;;;;;;;;;5.00;5.00;;;;;34.49;23.86;101711.78;5094769;27;46168;-69
2022/06/10 05:12:07;;;;;;;;;6.00;5.00;;;;;34.51;23.69;101707.91;5096670;27;45437;-72
2022/06/10 05:14:32;;;;;;;;;5.33;3.00;;;;;34.58;24.03;101708.38;5100646;27;45454;-84
2022/06/10 05:16:58;;;;;;;;;5.00;5.00;;;;;34.51;23.85;101702.41;5098774;27;45571;-85
2022/06/10 05:19:24;;;;;;;;;6.00;4.33;;;;;34.63;23.79;101702.59;5097841;27;46337;-84
2022/06/10 05:21:49;;;;;;;;;6.00;4.67;;;;;34.50;24.01;101695.16;5113663;27;45387;-83
2022/06/10 05:24:16;;;;;;;;;4.67;4.67;;;;;34.62;23.78;101690.66;5098137;27;45306;-82
2022/06/10 05:26:41;;;;;;;;;5.67;5.67;;;;;34.75;23.79;101703.59;5097027;27;45565;-82
2022/06/10 05:29:06;;;;;;;;;8.00;5.33;;;;;34.77;23.68;101702.50;5098065;27;45692;-82
2022/06/10 05:31:32;;;;;;;;;6.67;6.00;;;;;34.83;23.98;101704.00;5098028;27;45349;-84
2022/06/10 05:36:41;;;;;;;;;5.33;5.33;;;;;34.78;23.73;101711.66;5098485;27;45456;-84
2022/06/10 05:39:07;;;;;;;;;5.67;5.67;;;;;34.81;23.76;101708.72;5097739;27;45540;-81
2022/06/10 05:44:16;;;;;;;;;7.00;5.00;;;;;34.84;23.38;101709.41;5092406;27;45465;-83
2022/06/10 05:46:43;;;;;;;;;7.33;6.00;;;;;34.90;23.54;101707.22;5114247;27;45480;-85
2022/06/10 05:49:09;;;;;;;;;6.00;4.00;;;;;34.77;24.01;101715.41;5107483;27;45397;-84
2022/06/10 05:51:34;;;;;;;;;5.00;5.00;;;;;34.98;23.54;101735.13;5118559;27;45423;-77
2022/06/10 05:54:00;;;;;;;;;7.00;6.67;;;;;34.91;23.66;101711.72;5118604;27;45724;-82
2022/06/10 05:56:25;;;;;;;;;6.67;5.67;;;;;34.99;23.88;101731.38;5107511;27;45420;-81
2022/06/10 05:58:51;;;;;;;;;5.67;5.67;;;;;35.10;23.59;101719.63;5096237;27;48121;-80
2022/06/10 06:01:16;;;;;;;;;5.33;5.33;;;;;35.19;23.38;101739.16;5097664;27;45404;-80
2022/06/10 06:03:41;;;;;;;;;6.00;6.00;;;;;35.34;23.59;101752.88;5096865;27;45350;-81
2022/06/10 06:06:08;;;;;;;;;5.67;5.00;;;;;35.28;23.52;101742.25;5097525;27;45499;-81
2022/06/10 06:08:35;;;;;;;;;5.00;5.00;;;;;35.31;23.38;101747.59;5097574;27;45620;-79
2022/06/10 06:11:00;;;;;;;;;6.00;5.00;;;;;35.05;23.43;101753.03;5097481;27;45530;-79
2022/06/10 06:13:26;;;;;;;;;6.33;5.00;;;;;35.14;23.58;101749.63;5110847;27;45624;-79
2022/06/10 06:15:51;;;;;;;;;9.00;6.00;;;;;35.22;23.21;101738.06;5118359;27;45475;-79
2022/06/10 06:18:16;;;;;;;;;7.00;5.33;;;;;35.17;23.44;101749.41;5117293;27;45451;-79
2022/06/10 06:20:42;;;;;;;;;4.00;4.00;;;;;35.01;23.47;101745.97;5117097;27;45422;-79
2022/06/10 06:23:08;;;;;;;;;6.33;6.00;;;;;34.98;23.68;101737.88;5116573;27;46009;-80
2022/06/10 06:25:34;;;;;;;;;5.00;5.00;;;;;35.13;23.72;101760.75;5117839;27;45552;-79
2022/06/10 06:27:59;;;;;;;;;6.00;4.00;;;;;35.18;23.76;101753.94;5116145;27;45506;-79
2022/06/10 06:30:32;;;;;;;;;5.00;4.67;;;;;35.34;23.45;101764.81;5117932;27;45394;-79
2022/06/10 06:33:00;;;;;;;;;6.00;5.00;;;;;35.35;23.33;101773.97;5101712;27;45409;-79
2022/06/10 06:35:26;;;;;;;;;5.00;5.00;;;;;35.29;23.72;101749.53;5097252;27;45362;-80
2022/06/10 06:37:52;;;;;;;;;6.00;6.00;;;;;35.28;23.86;101765.22;5097107;27;46188;-80
2022/06/10 06:40:18;;;;;;;;;8.00;7.00;;;;;35.30;23.70;101773.38;5097135;27;45323;-79
2022/06/10 06:42:44;;;;;;;;;6.00;5.67;;;;;35.27;23.92;101757.91;5107094;27;45395;-79
2022/06/10 06:45:11;;;;;;;;;6.67;5.67;;;;;35.40;24.02;101768.13;5100970;27;45343;-79
2022/06/10 06:47:37;;;;;;;;;8.33;4.33;;;;;35.53;23.70;101772.69;5065922;27;46851;-79
2022/06/10 06:50:04;;;;;;;;;6.00;5.00;;;;;35.55;23.57;101787.22;5093221;27;45534;-80
2022/06/10 06:52:29;;;;;;;;;6.00;5.00;;;;;35.49;23.60;101761.97;5099799;27;45410;-80
2022/06/10 06:54:54;;;;;;;;;5.00;5.00;;;;;35.54;23.72;101768.94;5092903;27;48868;-79
2022/06/10 06:57:20;;;;;;;;;8.00;5.00;;;;;35.55;23.33;101759.63;5093114;27;49447;-80
2022/06/10 06:59:46;;;;;;;;;5.33;5.33;;;;;35.58;23.38;101777.00;5093828;27;45858;-80
2022/06/10 07:02:12;;;;;;;;;6.00;6.00;;;;;35.62;23.53;101762.84;5092633;27;45400;-80
2022/06/10 07:04:37;;;;;;;;;4.33;4.33;;;;;35.76;23.39;101750.81;5093200;27;45443;-80
2022/06/10 07:07:04;;;;;;;;;4.33;4.00;;;;;35.83;23.44;101748.53;5092609;27;46109;-79
2022/06/10 07:09:29;;;;;;;;;5.33;5.00;;;;;35.87;23.27;101766.66;5109391;27;45394;-79
2022/06/10 07:11:55;;;;;;;;;4.00;4.00;;;;;35.94;23.50;101758.81;5092129;27;45873;-79
2022/06/10 07:14:22;;;;;;;;;3.67;3.67;;;;;35.93;23.71;101760.66;5096540;27;45671;-69
2022/06/10 07:16:51;;;;;;;;;4.00;4.00;;;;;36.03;23.55;101769.16;5092984;27;45516;-69
2022/06/10 07:19:17;;;;;;;;;6.00;4.00;;;;;36.05;23.43;101770.81;5092439;27;45416;-68
2022/06/10 07:21:42;;;;;;;;;3.00;3.00;;;;;35.81;23.14;101740.38;5091344;27;45444;-69
2022/06/10 07:24:07;;;;;;;;;2.33;2.33;;;;;35.97;22.62;101764.97;5091309;27;45718;-69
2022/06/10 07:26:33;;;;;;;;;4.33;2.00;;;;;35.98;23.19;101768.59;5090924;27;46546;-69
2022/06/10 07:28:58;;;;;;;;;5.33;4.33;;;;;36.02;22.87;101753.56;5092569;27;45395;-68
2022/06/10 07:31:23;;;;;;;;;4.00;3.00;;;;;36.11;22.74;101763.97;5094308;27;45386;-69
2022/06/10 07:33:49;;;;;;;;;2.33;2.33;;;;;36.06;22.73;101758.78;5092311;27;45728;-68
2022/06/10 07:36:14;;;;;;;;;2.33;2.33;;;;;36.10;23.06;101772.38;5094935;27;46271;-68
2022/06/10 07:38:39;;;;;;;;;2.33;2.33;;;;;36.18;23.09;101762.50;5092416;27;45438;-68
2022/06/10 07:43:49;;;;;;;;;2.00;2.00;;;;;36.21;22.51;101762.28;5092682;27;45411;-69
2022/06/10 07:46:19;;;;;;;;;4.00;2.00;;;;;36.33;22.45;101777.09;5091697;27;46395;-68
2022/06/10 07:48:45;;;;;;;;;2.00;2.00;;;;;36.20;22.29;101778.97;5092358;27;45510;-68
2022/06/10 07:51:11;;;;;;;;;3.00;3.00;;;;;36.19;21.98;101778.09;5091873;27;45610;-68
2022/06/10 07:53:39;;;;;;;;;2.00;2.00;;;;;36.34;22.29;101789.03;5086481;27;45569;-68
2022/06/10 07:56:05;;;;;;;;;3.00;3.00;;;;;36.23;21.66;101779.63;5090235;27;45543;-68
2022/06/10 07:58:30;;;;;;;;;2.00;2.00;;;;;36.28;21.72;101745.25;5092166;27;45892;-69
2022/06/10 08:00:57;;;;;;;;;2.00;2.00;;;;;36.45;21.91;101775.28;5090636;27;45368;-69
2022/06/10 08:03:23;;;;;;;;;4.00;1.67;;;;;36.46;22.23;101779.81;5090427;27;45750;-68
2022/06/10 08:05:49;;;;;;;;;2.33;2.33;;;;;36.54;21.95;101779.22;5090977;27;45934;-68
2022/06/10 08:08:18;;;;;;;;;2.00;2.00;;;;;36.54;21.86;101755.25;5090359;27;45606;-68
2022/06/10 08:10:44;;;;;;;;;3.33;3.00;;;;;36.65;22.11;101767.38;5089367;27;45443;-68
2022/06/10 08:13:10;;;;;;;;;2.33;2.00;;;;;36.53;21.93;101753.50;5089313;27;45543;-69
2022/06/10 08:15:36;;;;;;;;;3.00;2.00;;;;;36.69;22.06;101779.97;5088789;27;45553;-69
2022/06/10 08:18:02;;;;;;;;;1.67;1.67;;;;;36.59;21.88;101779.78;5089255;27;45499;-68
2022/06/10 08:23:17;;;;;;;;;2.00;2.00;;;;;36.85;22.07;101769.53;5090388;27;45421;-68
2022/06/10 08:25:43;;;;;;;;;1.00;1.00;;;;;36.82;22.05;101758.72;5089962;27;46213;-69
2022/06/10 08:28:10;;;;;;;;;2.00;2.00;;;;;36.83;21.55;101773.41;5088715;27;45507;-69
2022/06/10 08:30:36;;;;;;;;;2.00;1.00;;;;;36.85;22.05;101768.63;5090203;27;45414;-69
2022/06/10 08:33:04;;;;;;;;;2.00;1.00;;;;;36.68;21.72;101772.66;5090970;27;45465;-69
2022/06/10 08:35:31;;;;;;;;;2.00;2.00;;;;;36.65;21.87;101771.00;5090639;27;45490;-68
2022/06/10 08:37:57;;;;;;;;;1.00;1.00;;;;;36.72;22.17;101774.19;5096469;27;45503;-69
2022/06/10 08:40:33;;;;;;;;;4.00;2.67;;;;;36.81;22.23;101765.25;5091372;27;46437;-69
2022/06/10 08:43:39;;;;;;;;;2.00;1.00;;;;;36.89;21.86;101768.31;5090257;27;45481;-69
2022/06/10 08:46:14;;;;;;;;;1.00;1.00;;;;;36.86;22.05;101771.28;5087034;27;45578;-69
2022/06/10 08:48:58;;;;;;;;;2.00;2.00;;;;;36.84;22.10;101767.75;5093364;27;45539;-69
2022/06/10 08:51:41;;;;;;;;;1.00;1.00;;;;;36.87;21.44;101762.00;5093857;27;45450;-69
2022/06/10 08:54:13;;;;;;;;;2.00;2.00;;;;;36.45;21.35;101685.97;5092033;27;45436;-69
2022/06/10 08:56:53;;;;;;;;;3.00;1.00;;;;;36.95;21.46;101752.22;5108910;27;46069;-69
2022/06/10 08:59:21;;;;;;;;;2.33;1.00;;;;;37.05;21.02;101754.16;5109933;27;46020;-69
2022/06/10 09:02:09;;;;;;;;;0.00;0.00;;;;;36.99;21.44;101764.81;5093234;27;46753;-69
2022/06/10 09:04:52;;;;;;;;;5.67;1.00;;;;;37.06;20.96;101755.94;5094191;27;45559;-69
2022/06/10 09:07:28;;;;;;;;;1.00;1.00;;;;;36.93;21.82;101755.09;5093713;27;46520;-69
2022/06/10 09:09:55;;;;;;;;;4.00;1.67;;;;;36.86;21.83;101762.97;5095964;27;45538;-69
2022/06/10 09:12:25;;;;;;;;;3.67;1.67;;;;;37.06;21.90;101769.75;5093365;27;45547;-69
2022/06/10 09:14:54;;;;;;;;;2.67;2.00;;;;;36.93;21.59;101754.22;5097149;27;45364;-76
2022/06/10 09:17:33;;;;;;;;;2.00;2.00;;;;;36.82;21.95;101742.13;5097270;27;46064;-77
2022/06/10 09:20:13;;;;;;;;;3.00;1.67;;;;;36.81;22.13;101756.03;5098785;27;45522;-78
2022/06/10 09:22:47;;;;;;;;;3.67;1.33;;;;;37.11;21.73;101758.31;5089886;27;45623;-81
2022/06/10 09:25:26;;;;;;;;;2.33;1.67;;;;;37.25;21.63;101747.03;5092929;27;45467;-83
2022/06/10 09:27:56;;;;;;;;;2.00;1.00;;;;;37.23;21.09;101745.41;5095745;27;46550;-81
2022/06/10 09:30:31;;;;;;;;;2.00;1.33;;;;;37.32;21.07;101760.44;5094467;27;45917;-82
2022/06/10 09:33:10;;;;;;;;;1.00;1.00;;;;;37.59;21.06;101755.44;5094873;27;45605;-81
2022/06/10 09:35:53;;;;;;;;;2.00;2.00;;;;;37.61;21.30;101749.81;5093628;27;45426;-80
2022/06/10 09:38:44;;;;;;;;;1.00;1.00;;;;;37.58;21.25;101744.50;5094553;27;45561;-80
2022/06/10 09:41:28;;;;;;;;;3.00;1.00;;;;;37.60;21.39;101761.91;5092244;27;45506;-79
2022/06/10 09:44:09;;;;;;;;;1.67;1.00;;;;;37.69;20.76;101751.94;5094918;27;46218;-81
2022/06/10 09:47:12;;;;;;;;;1.00;1.00;;;;;37.78;21.25;101764.19;5092475;27;45498;-77
2022/06/10 09:49:54;;;;;;;;;3.00;2.00;;;;;37.76;21.13;101761.56;5092415;27;45723;-83
2022/06/10 09:52:28;;;;;;;;;2.00;2.00;;;;;37.81;21.19;101750.09;5092484;27;45474;-78
2022/06/10 09:55:20;;;;;;;;;3.00;2.00;;;;;37.54;21.23;101726.38;5092082;27;45488;-79
2022/06/10 09:58:04;;;;;;;;;1.00;1.00;;;;;37.62;20.50;101753.47;5094148;27;45375;-81
2022/06/10 10:00:37;;;;;;;;;1.00;1.00;;;;;37.72;20.43;101729.53;5096349;27;45767;-85
2022/06/10 10:03:15;;;;;;;;;1.00;1.00;;;;;37.51;20.31;101688.78;5095078;27;45341;-87
2022/06/10 10:05:52;;;;;;;;;1.00;1.00;;;;;38.02;20.17;101751.13;5095573;27;45469;-78
2022/06/10 10:08:45;;;;;;;;;1.00;1.00;;;;;38.11;20.05;101735.63;5096542;27;45482;-80
2022/06/10 10:11:31;;;;;;;;;1.00;1.00;;;;;38.26;20.19;101762.09;5109532;27;47572;-77
2022/06/10 10:14:15;;;;;;;;;2.00;2.00;;;;;38.20;20.49;101758.91;5103039;27;45388;-77
2022/06/10 10:16:54;;;;;;;;;1.00;1.00;;;;;38.16;20.95;101758.28;5116742;27;45565;-77
2022/06/10 10:19:37;;;;;;;;;1.00;1.00;;;;;38.12;20.78;101758.66;5105139;27;45311;-78
2022/06/10 10:22:22;;;;;;;;;1.00;1.00;;;;;38.11;20.40;101752.25;5087608;27;45402;-77
2022/06/10 10:24:48;;;;;;;;;0.00;0.00;;;;;38.23;20.18;101745.72;5095030;27;45377;-77
2022/06/10 10:27:25;;;;;;;;;1.00;1.00;;;;;37.99;20.44;101744.94;5095763;27;45250;-77
2022/06/10 10:29:57;;;;;;;;;2.00;2.00;;;;;38.12;20.26;101754.00;5092705;27;45637;-77
2022/06/10 10:32:27;;;;;;;;;1.00;1.00;;;;;38.13;20.14;101741.94;5086774;27;46263;-77
2022/06/10 10:35:03;;;;;;;;;2.00;2.00;;;;;38.40;20.46;101763.72;5094444;27;45580;-77
2022/06/10 10:37:32;;;;;;;;;1.00;1.00;;;;;38.44;20.38;101758.81;5092729;27;45488;-77
2022/06/10 10:40:21;;;;;;;;;1.67;1.67;;;;;38.37;20.04;101763.06;5094544;27;45394;-77
2022/06/10 10:42:51;;;;;;;;;3.00;1.67;;;;;38.01;20.58;101754.91;5095418;27;47222;-77
2022/06/10 10:45:26;;;;;;;;;5.00;2.00;;;;;37.99;21.07;101739.41;5089255;27;45374;-77
2022/06/10 10:47:58;;;;;;;;;1.00;1.00;;;;;38.16;20.59;101761.06;5096061;27;45458;-77
2022/06/10 10:50:38;;;;;;;;;1.00;1.00;;;;;38.21;20.09;101756.03;5088160;27;45326;-77
2022/06/10 10:53:20;;;;;;;;;1.00;1.00;;;;;38.14;20.29;101745.56;5095446;27;45471;-77
2022/06/10 10:55:51;;;;;;;;;2.67;1.00;;;;;38.20;20.37;101732.09;5091661;27;45458;-77
2022/06/10 10:58:24;;;;;;;;;1.33;1.33;;;;;38.36;20.91;101750.25;5117030;27;45453;-77
2022/06/10 11:01:00;;;;;;;;;3.00;2.00;;;;;38.59;20.13;101729.78;5095742;27;45473;-77
2022/06/10 11:03:37;;;;;;;;;1.33;1.00;;;;;38.75;20.29;101745.13;5095286;27;45446;-77
2022/06/10 11:06:05;;;;;;;;;1.00;1.00;;;;;38.68;19.96;101727.22;5085927;27;45429;-77
2022/06/10 11:08:38;;;;;;;;;1.00;1.00;;;;;38.36;20.42;101741.94;5100809;27;45525;-77
2022/06/10 11:11:09;;;;;;;;;1.00;1.00;;;;;38.28;20.41;101747.22;5094292;27;45437;-77
2022/06/10 11:13:35;;;;;;;;;0.33;0.33;;;;;38.38;20.21;101739.91;5094021;27;47044;-77
2022/06/10 11:16:36;;;;;;;;;1.00;1.00;;;;;38.49;20.29;101739.00;5111150;27;45525;-77
2022/06/10 11:19:19;;;;;;;;;2.00;2.00;;;;;38.48;19.81;101748.31;5076897;27;45453;-77
2022/06/10 11:21:50;;;;;;;;;5.00;1.00;;;;;38.75;20.24;101748.78;5095348;27;45547;-77
2022/06/10 11:24:17;;;;;;;;;1.00;1.00;;;;;38.78;19.98;101731.88;5095085;27;45398;-77
2022/06/10 11:26:50;;;;;;;;;2.67;2.00;;;;;38.65;19.73;101744.09;5095227;27;45500;-77
2022/06/10 11:29:16;;;;;;;;;3.00;2.00;;;;;38.49;20.37;101736.22;5094017;27;46565;-77
2022/06/10 11:31:46;;;;;;;;;2.00;2.00;;;;;38.55;20.34;101741.22;5095379;27;45425;-77
2022/06/10 11:34:29;;;;;;;;;1.33;1.33;;;;;38.49;20.94;101726.00;5095177;27;45579;-77
2022/06/10 11:36:56;;;;;;;;;2.00;1.00;;;;;38.69;20.93;101746.50;5094526;27;45479;-77
2022/06/10 11:39:35;;;;;;;;;1.00;1.00;;;;;38.65;20.88;101725.59;5093680;27;45430;-77
2022/06/10 11:42:22;;;;;;;;;2.00;1.00;;;;;38.78;20.18;101744.88;5095082;27;45506;-68
2022/06/10 11:44:52;;;;;;;;;2.00;2.00;;;;;38.71;20.85;101732.53;5090043;27;46494;-68
2022/06/10 11:47:29;;;;;;;;;2.00;2.00;;;;;39.01;20.26;101734.53;5086294;27;45610;-69
2022/06/10 11:50:02;;;;;;;;;1.00;1.00;;;;;38.65;20.55;101744.09;5090642;27;45560;-68
2022/06/10 11:52:36;;;;;;;;;2.00;1.00;;;;;38.57;20.46;101742.00;5090597;27;45374;-68
2022/06/10 11:55:12;;;;;;;;;1.00;1.00;;;;;38.49;20.12;101736.22;5066662;27;46656;-67
2022/06/10 12:00:49;;;;;;;;;2.00;1.00;;;;;38.79;20.91;101735.50;5089876;27;45931;-68
2022/06/10 12:03:32;;;;;;;;;2.67;1.00;;;;;39.15;20.17;101736.13;5088272;27;46379;-68
2022/06/10 12:06:18;;;;;;;;;1.33;1.33;;;;;39.16;20.51;101735.13;5090707;27;45477;-68
2022/06/10 12:08:53;;;;;;;;;1.33;1.33;;;;;39.06;20.92;101739.69;5089963;27;45408;-68